Time;durP1;ratioP1;P1;durP2;ratioP2;P2;SDS_P1;SDS_P2;PMS_P1;PMS_P2;Temp;Humidity;BMP_temperature;BMP_pressure;BME280_temperature;BME280_humidity;BME280_pressure;Samples;Min_cycle;Max_cycle;Signal;HPM_P1;HPM_P2
2021/12/24 00:01:07;;;;;;;71.17;27.23;;;7.60;99.90;;;;;;5099501;28;20286;-77
2021/12/24 00:03:35;;;;;;;75.77;28.57;;;;;;;;;;5097876;28;20207;-77
2021/12/24 00:06:07;;;;;;;75.43;28.27;;;7.60;99.90;;;;;;5106146;28;20250;-75
2021/12/24 00:08:35;;;;;;;77.17;27.97;;;7.60;99.90;;;;;;5096131;28;20227;-76
2021/12/24 00:11:06;;;;;;;79.47;29.60;;;7.70;99.90;;;;;;5095189;28;20214;-75
2021/12/24 00:13:38;;;;;;;77.17;28.33;;;7.70;99.90;;;;;;5079086;28;20303;-75
2021/12/24 00:16:21;;;;;;;69.37;27.20;;;7.70;99.90;;;;;;5081072;28;20199;-76
2021/12/24 00:18:55;;;;;;;72.87;28.47;;;7.70;99.90;;;;;;5097815;28;20235;-75
2021/12/24 00:37:38;;;;;;;77.67;29.17;;;7.90;99.90;;;;;;5098061;28;20303;-75
2021/12/24 00:42:34;;;;;;;87.97;30.53;;;8.00;99.90;;;;;;5108581;28;20207;-76
2021/12/24 00:45:02;;;;;;;86.50;29.13;;;7.90;99.90;;;;;;5094020;28;20215;-75
2021/12/24 00:47:30;;;;;;;79.47;29.90;;;8.00;99.90;;;;;;5093798;28;20204;-76
2021/12/24 00:49:58;;;;;;;75.43;28.77;;;8.00;99.90;;;;;;5093240;28;20230;-76
2021/12/24 00:52:46;;;;;;;77.17;28.03;;;8.00;99.90;;;;;;5098260;28;20208;-76
2021/12/24 00:55:16;;;;;;;73.83;27.23;;;8.00;99.90;;;;;;5096173;28;20215;-75
2021/12/24 00:57:49;;;;;;;71.47;28.60;;;8.10;99.90;;;;;;5099373;28;20616;-75
2021/12/24 01:00:25;;;;;;;71.63;26.53;;;8.10;99.90;;;;;;5089463;28;20267;-75
2021/12/24 01:02:53;;;;;;;69.20;26.90;;;8.10;99.90;;;;;;5096673;28;20291;-76
2021/12/24 01:05:22;;;;;;;63.40;24.93;;;8.20;99.90;;;;;;5092133;28;20224;-75
2021/12/24 01:07:50;;;;;;;70.23;25.73;;;8.20;99.90;;;;;;5097822;28;20623;-76
2021/12/24 01:10:20;;;;;;;61.20;26.47;;;8.20;99.90;;;;;;5100356;28;20203;-76
2021/12/24 01:12:47;;;;;;;62.53;23.83;;;8.20;99.90;;;;;;5102058;28;20241;-76
2021/12/24 01:15:15;;;;;;;55.33;22.90;;;8.20;99.90;;;;;;5101485;28;20280;-76
2021/12/24 01:20:30;;;;;;;53.00;21.80;;;8.20;99.90;;;;;;5097546;28;20232;-77
2021/12/24 01:25:52;;;;;;;57.37;22.17;;;8.20;99.90;;;;;;5099020;28;20658;-75
2021/12/24 01:39:38;;;;;;;59.03;25.03;;;8.30;99.90;;;;;;5097421;28;20216;-75
2021/12/24 01:44:52;;;;;;;68.07;25.73;;;8.40;99.90;;;;;;5101531;28;20681;-75
2021/12/24 01:47:18;;;;;;;59.33;24.53;;;8.40;99.90;;;;;;5099393;28;20309;-75
2021/12/24 01:49:45;;;;;;;59.30;25.07;;;8.50;99.90;;;;;;5100745;28;20674;-76
2021/12/24 01:52:15;;;;;;;65.43;26.13;;;8.50;99.90;;;;;;5103763;28;20202;-75
2021/12/24 01:54:43;;;;;;;59.67;25.80;;;8.50;99.90;;;;;;5095447;28;20243;-78
2021/12/24 01:57:12;;;;;;;60.70;25.80;;;8.60;99.90;;;;;;5102963;28;20292;-77
2021/12/24 01:59:41;;;;;;;60.17;24.83;;;8.60;99.90;;;;;;5101603;28;20497;-76
2021/12/24 02:02:08;;;;;;;61.97;25.60;;;8.60;99.90;;;;;;5102915;28;20555;-75
2021/12/24 02:04:35;;;;;;;62.67;26.33;;;8.60;99.90;;;;;;5098426;28;20271;-76
2021/12/24 02:07:04;;;;;;;56.60;22.93;;;8.60;99.90;;;;;;5101548;28;20211;-75
2021/12/24 02:09:31;;;;;;;57.97;22.97;;;8.70;99.90;;;;;;5098784;28;20250;-76
2021/12/24 02:11:58;;;;;;;55.77;24.87;;;8.60;99.90;;;;;;5102573;28;20272;-74
2021/12/24 02:14:33;;;;;;;59.43;23.30;;;8.70;99.90;;;;;;5094728;28;20214;-75
2021/12/24 02:28:26;;;;;;;53.67;22.50;;;8.80;99.90;;;;;;5094886;28;20214;-76
2021/12/24 02:30:53;;;;;;;61.13;22.47;;;8.80;99.90;;;;;;5087675;28;20289;-75
2021/12/24 02:33:20;;;;;;;61.83;23.73;;;8.90;99.90;;;;;;5096792;28;20213;-75
2021/12/24 02:35:47;;;;;;;57.67;22.47;;;8.90;99.90;;;;;;5088309;28;20303;-75
2021/12/24 02:38:14;;;;;;;53.87;23.37;;;8.90;99.90;;;;;;5098385;28;20318;-75
2021/12/24 02:40:41;;;;;;;55.17;22.77;;;9.00;99.90;;;;;;5088081;28;20318;-76
2021/12/24 02:43:13;;;;;;;54.77;21.90;;;9.00;99.90;;;;;;5103472;28;20733;-77
2021/12/24 02:45:42;;;;;;;58.00;23.87;;;9.00;99.90;;;;;;5104907;28;21162;-76
2021/12/24 02:48:25;;;;;;;56.43;22.73;;;9.10;99.90;;;;;;5102448;28;20300;-75
2021/12/24 02:53:58;;;;;;;59.40;22.00;;;9.20;99.90;;;;;;5095159;28;20216;-76
2021/12/24 02:56:29;;;;;;;57.07;22.40;;;9.10;99.90;;;;;;5097450;28;20203;-75
2021/12/24 02:58:59;;;;;;;58.33;22.70;;;9.20;99.90;;;;;;5104224;28;20230;-75
2021/12/24 03:01:31;;;;;;;58.43;22.73;;;9.20;99.90;;;;;;5098582;28;20606;-77
2021/12/24 03:03:59;;;;;;;51.70;20.07;;;9.20;99.90;;;;;;5102458;28;20208;-75
2021/12/24 03:06:32;;;;;;;51.17;20.57;;;9.30;99.90;;;;;;5099041;28;20244;-75
2021/12/24 03:09:00;;;;;;;52.97;20.13;;;9.30;99.90;;;;;;5094817;28;20653;-76
2021/12/24 03:11:27;;;;;;;53.03;20.80;;;9.30;99.90;;;;;;5100703;28;20293;-75
2021/12/24 03:13:54;;;;;;;49.50;19.73;;;9.30;99.90;;;;;;5081897;28;20213;-76
2021/12/24 03:16:21;;;;;;;49.33;19.63;;;9.40;99.90;;;;;;5099499;28;20211;-76
2021/12/24 03:18:49;;;;;;;54.63;19.77;;;9.40;99.90;;;;;;5097018;28;20210;-76
2021/12/24 03:21:25;;;;;;;55.60;19.63;;;;;;;;;;5099133;28;20737;-76
2021/12/24 03:26:33;;;;;;;67.20;22.60;;;9.50;99.90;;;;;;5097384;28;20716;-76
2021/12/24 03:29:05;;;;;;;70.07;22.33;;;9.60;99.90;;;;;;5104126;28;20220;-75
2021/12/24 03:31:32;;;;;;;71.10;24.07;;;9.60;99.90;;;;;;5103917;28;20230;-76
2021/12/24 03:33:59;;;;;;;71.93;24.27;;;9.70;99.90;;;;;;5086575;28;20583;-75
2021/12/24 03:36:27;;;;;;;76.57;24.13;;;9.70;99.90;;;;;;5097538;28;20309;-76
2021/12/24 03:38:54;;;;;;;64.13;22.27;;;9.80;99.90;;;;;;5095780;28;20719;-75
2021/12/24 03:41:22;;;;;;;71.37;24.77;;;9.70;99.90;;;;;;5065016;28;20227;-75
2021/12/24 03:43:49;;;;;;;72.60;25.23;;;9.80;99.90;;;;;;5096583;28;20218;-76
2021/12/24 03:46:20;;;;;;;74.63;24.23;;;9.80;99.90;;;;;;5081976;28;20852;-77
2021/12/24 03:48:55;;;;;;;78.37;25.53;;;9.80;99.90;;;;;;5100929;28;20627;-75
2021/12/24 03:51:36;;;;;;;69.80;25.27;;;9.80;99.90;;;;;;5100143;28;20306;-75
2021/12/24 03:56:52;;;;;;;68.23;23.87;;;9.80;99.90;;;;;;5102517;28;20680;-75
2021/12/24 03:59:18;;;;;;;73.90;23.87;;;9.80;99.90;;;;;;5096013;28;20782;-77
2021/12/24 04:01:45;;;;;;;64.80;22.87;;;9.90;99.90;;;;;;5093466;28;20230;-76
2021/12/24 04:04:12;;;;;;;66.47;22.80;;;9.90;99.90;;;;;;5102293;28;20557;-76
2021/12/24 04:06:40;;;;;;;66.13;23.07;;;9.80;99.90;;;;;;5095795;28;20207;-76
2021/12/24 04:09:07;;;;;;;60.03;20.73;;;9.90;99.90;;;;;;5098440;28;20299;-77
2021/12/24 04:11:37;;;;;;;62.67;23.03;;;9.80;99.90;;;;;;5080143;28;20200;-76
2021/12/24 04:14:04;;;;;;;58.20;21.90;;;9.90;99.90;;;;;;5101170;28;20338;-76
2021/12/24 04:16:32;;;;;;;51.00;20.00;;;9.80;99.90;;;;;;5099068;28;20225;-76
2021/12/24 04:19:23;;;;;;;60.40;22.10;;;9.80;99.90;;;;;;5075391;28;20200;-78
2021/12/24 04:24:52;;;;;;;43.87;19.07;;;9.80;99.90;;;;;;5099414;28;20330;-77
2021/12/24 04:27:26;;;;;;;47.67;18.80;;;9.80;99.90;;;;;;5094623;28;20206;-77
2021/12/24 04:30:00;;;;;;;49.27;18.77;;;9.90;99.90;;;;;;5098311;28;20309;-76
2021/12/24 04:32:37;;;;;;;51.57;19.07;;;9.80;99.90;;;;;;5102352;28;20613;-76
2021/12/24 04:35:18;;;;;;;57.63;20.47;;;9.80;99.90;;;;;;5099171;28;20315;-77
2021/12/24 04:51:44;;;;;;;43.30;18.63;;;9.80;99.90;;;;;;5100399;28;20651;-76
2021/12/24 05:05:39;;;;;;;55.03;19.00;;;9.80;99.90;;;;;;5108155;28;20211;-77
2021/12/24 05:10:21;;;;;;;40.37;18.57;;;9.80;99.90;;;;;;5113791;28;20222;-76
2021/12/24 05:12:47;;;;;;;45.93;18.07;;;9.80;99.90;;;;;;5090645;28;20201;-77
2021/12/24 05:15:15;;;;;;;41.83;17.60;;;9.90;99.90;;;;;;5077034;28;20207;-77
2021/12/24 05:18:30;;;;;;;46.27;19.20;;;9.90;99.90;;;;;;5093723;28;20667;-76
2021/12/24 05:23:16;;;;;;;37.13;16.87;;;9.80;99.90;;;;;;5094637;28;20408;-76
2021/12/24 05:25:50;;;;;;;38.80;17.93;;;9.90;99.90;;;;;;5100724;28;20280;-77
2021/12/24 05:28:18;;;;;;;41.77;16.93;;;9.80;99.90;;;;;;5096714;28;20286;-76
2021/12/24 05:30:45;;;;;;;44.80;16.40;;;9.80;99.90;;;;;;5094006;28;20221;-77
2021/12/24 05:33:14;;;;;;;41.63;17.97;;;9.80;99.90;;;;;;5091383;28;20258;-78
2021/12/24 05:35:43;;;;;;;40.27;15.90;;;9.80;99.90;;;;;;5103885;28;20211;-75
2021/12/24 05:38:12;;;;;;;36.90;14.63;;;9.80;99.90;;;;;;5081975;28;20207;-76
2021/12/24 05:40:39;;;;;;;39.17;15.30;;;9.80;99.90;;;;;;5097499;28;20243;-77
2021/12/24 05:43:06;;;;;;;37.90;15.10;;;9.80;99.90;;;;;;5094896;28;20200;-76
2021/12/24 05:45:33;;;;;;;33.67;14.53;;;9.80;99.90;;;;;;5095275;28;20306;-77
2021/12/24 05:48:00;;;;;;;32.90;14.80;;;9.80;99.90;;;;;;5093457;28;20637;-77
2021/12/24 05:50:27;;;;;;;32.73;15.67;;;9.80;99.90;;;;;;5099546;28;20219;-77
2021/12/24 05:52:53;;;;;;;39.20;14.37;;;9.80;99.90;;;;;;5093375;28;20211;-76
2021/12/24 05:55:20;;;;;;;34.93;14.50;;;9.80;99.90;;;;;;5096592;28;20203;-76
2021/12/24 05:57:47;;;;;;;35.97;13.50;;;9.90;99.90;;;;;;5104240;28;20250;-76
2021/12/24 06:00:15;;;;;;;28.07;12.37;;;9.80;99.90;;;;;;5102739;28;20249;-76
2021/12/24 06:02:43;;;;;;;39.43;13.50;;;9.70;99.90;;;;;;5101589;28;20212;-77
2021/12/24 06:05:10;;;;;;;26.50;12.87;;;9.70;99.90;;;;;;5082885;28;20277;-77
2021/12/24 06:07:37;;;;;;;30.23;12.67;;;9.70;99.90;;;;;;5096769;28;20631;-77
2021/12/24 06:10:07;;;;;;;30.67;13.07;;;9.80;99.90;;;;;;5108003;28;20663;-77
2021/12/24 06:12:34;;;;;;;27.60;12.20;;;9.70;99.90;;;;;;5101131;28;20647;-76
2021/12/24 06:15:05;;;;;;;32.13;12.63;;;9.70;99.90;;;;;;5097912;28;20198;-78
2021/12/24 06:17:33;;;;;;;32.13;11.93;;;9.70;99.90;;;;;;5098095;28;20211;-77
2021/12/24 06:20:00;;;;;;;27.40;12.27;;;9.70;99.90;;;;;;5100392;28;20616;-77
2021/12/24 06:22:27;;;;;;;28.60;10.93;;;9.70;99.90;;;;;;5101189;28;20298;-77
2021/12/24 06:24:53;;;;;;;31.57;11.67;;;9.70;99.90;;;;;;5100639;28;20701;-75
2021/12/24 06:27:20;;;;;;;27.13;12.50;;;9.70;99.90;;;;;;5101323;28;20263;-77
2021/12/24 06:29:47;;;;;;;31.90;11.33;;;9.70;99.90;;;;;;5105774;28;20211;-77
2021/12/24 06:32:15;;;;;;;26.93;11.23;;;9.70;99.90;;;;;;5069320;28;20203;-76
2021/12/24 06:34:42;;;;;;;29.83;10.63;;;9.60;99.90;;;;;;5103344;28;20590;-78
2021/12/24 06:37:09;;;;;;;30.80;10.97;;;9.60;99.90;;;;;;5097771;28;20211;-76
2021/12/24 06:39:36;;;;;;;31.47;11.47;;;9.60;99.90;;;;;;5076948;28;20203;-75
2021/12/24 06:42:06;;;;;;;30.17;11.20;;;9.60;99.90;;;;;;5102103;28;20313;-77
2021/12/24 06:44:33;;;;;;;23.87;10.37;;;9.60;99.90;;;;;;5096220;28;20617;-77
2021/12/24 06:47:00;;;;;;;36.93;10.63;;;9.60;99.90;;;;;;5102499;28;20237;-76
2021/12/24 06:49:27;;;;;;;30.43;9.90;;;9.60;99.90;;;;;;5099966;28;20698;-76
2021/12/24 06:51:54;;;;;;;23.30;9.97;;;9.50;99.90;;;;;;5101163;28;20301;-77
2021/12/24 06:54:21;;;;;;;18.53;8.07;;;9.50;99.90;;;;;;5098808;28;20243;-77
2021/12/24 06:56:48;;;;;;;23.73;9.20;;;9.50;99.90;;;;;;5095301;28;20290;-76
2021/12/24 06:59:15;;;;;;;22.17;9.03;;;9.50;99.90;;;;;;5091509;28;20231;-76
2021/12/24 07:01:41;;;;;;;20.23;9.27;;;9.50;99.90;;;;;;5102242;28;20288;-76
2021/12/24 07:04:09;;;;;;;29.83;9.67;;;9.50;99.90;;;;;;5102792;28;20228;-77
2021/12/24 07:06:43;;;;;;;27.20;10.17;;;9.50;99.90;;;;;;5101251;28;20237;-76
2021/12/24 07:09:10;;;;;;;27.47;10.20;;;9.50;99.90;;;;;;5101137;28;20243;-77
2021/12/24 07:11:37;;;;;;;27.07;10.73;;;9.50;99.90;;;;;;5104705;28;20558;-76
2021/12/24 07:14:05;;;;;;;25.20;9.97;;;9.50;99.90;;;;;;5083169;28;20297;-77
2021/12/24 07:16:32;;;;;;;25.30;9.50;;;9.60;99.90;;;;;;5063350;28;20652;-76
2021/12/24 07:18:59;;;;;;;24.33;9.53;;;9.50;99.90;;;;;;5093608;28;20211;-77
2021/12/24 07:21:26;;;;;;;30.50;9.80;;;9.50;99.90;;;;;;5085113;28;20287;-77
2021/12/24 07:23:53;;;;;;;27.17;10.07;;;9.50;99.90;;;;;;5090765;28;20282;-76
2021/12/24 07:26:20;;;;;;;23.20;8.83;;;9.50;99.90;;;;;;5098529;28;20234;-76
2021/12/24 07:28:47;;;;;;;20.30;9.00;;;9.50;99.90;;;;;;5091286;28;20653;-76
2021/12/24 07:31:14;;;;;;;18.97;8.57;;;9.50;99.90;;;;;;5096402;28;20655;-75
2021/12/24 07:33:41;;;;;;;26.40;8.60;;;9.50;99.90;;;;;;5099290;28;20659;-77
2021/12/24 07:36:08;;;;;;;16.57;8.00;;;9.50;99.90;;;;;;5101463;28;20219;-76
2021/12/24 07:38:34;;;;;;;29.87;8.27;;;9.50;99.90;;;;;;5099929;28;20338;-76
2021/12/24 07:41:01;;;;;;;18.57;7.33;;;9.50;99.90;;;;;;5097777;28;20219;-76
2021/12/24 07:43:28;;;;;;;19.93;7.47;;;9.50;99.90;;;;;;5101512;28;20227;-76
2021/12/24 07:45:55;;;;;;;29.90;9.13;;;9.50;99.90;;;;;;5080547;28;20391;-76
2021/12/24 07:48:31;;;;;;;24.77;7.73;;;9.50;99.90;;;;;;5097788;28;20297;-77
2021/12/24 07:53:28;;;;;;;24.57;8.53;;;9.50;99.90;;;;;;5096844;28;20227;-77
2021/12/24 07:55:56;;;;;;;26.57;8.60;;;9.50;99.90;;;;;;5106213;28;20204;-77
2021/12/24 07:58:23;;;;;;;21.70;7.93;;;9.50;99.90;;;;;;5105099;28;20287;-78
2021/12/24 08:00:51;;;;;;;25.23;8.93;;;9.50;99.90;;;;;;5102445;28;20230;-77
2021/12/24 08:03:19;;;;;;;23.47;8.50;;;9.50;99.90;;;;;;5097965;28;20198;-76
2021/12/24 08:05:48;;;;;;;20.43;8.07;;;9.60;99.90;;;;;;5082842;28;20626;-78
2021/12/24 08:08:16;;;;;;;22.13;9.17;;;9.60;99.90;;;;;;5094489;28;20283;-78
2021/12/24 08:10:43;;;;;;;18.97;8.93;;;9.60;99.90;;;;;;5099725;28;20208;-77
2021/12/24 08:13:10;;;;;;;25.60;7.90;;;9.60;99.90;;;;;;5078457;28;20211;-77
2021/12/24 08:15:37;;;;;;;26.10;8.40;;;9.60;99.90;;;;;;5099131;28;20353;-76
2021/12/24 08:18:08;;;;;;;19.50;8.50;;;9.60;99.90;;;;;;5096003;28;20678;-78
2021/12/24 08:20:35;;;;;;;25.03;8.23;;;9.50;99.90;;;;;;5091964;28;20613;-78
2021/12/24 08:23:02;;;;;;;24.57;9.63;;;9.50;99.90;;;;;;5099988;28;20211;-77
2021/12/24 08:25:31;;;;;;;33.63;9.60;;;9.50;99.90;;;;;;5104344;28;20260;-76
2021/12/24 08:27:58;;;;;;;19.83;8.37;;;9.50;99.90;;;;;;5100511;28;20207;-78
2021/12/24 08:30:25;;;;;;;22.17;8.63;;;9.50;99.90;;;;;;5104028;28;20228;-77
2021/12/24 08:32:54;;;;;;;29.00;8.73;;;9.50;99.90;;;;;;5101244;28;20196;-79
2021/12/24 08:35:21;;;;;;;21.80;7.80;;;9.60;99.90;;;;;;5100916;28;20220;-77
2021/12/24 08:37:48;;;;;;;22.23;8.67;;;9.60;99.90;;;;;;5079523;28;20251;-78
2021/12/24 08:40:15;;;;;;;22.63;8.13;;;9.50;99.90;;;;;;5062887;28;20245;-78
2021/12/24 08:42:42;;;;;;;20.43;7.67;;;9.50;99.90;;;;;;5096695;28;20238;-77
2021/12/24 08:45:10;;;;;;;22.50;8.80;;;9.50;99.90;;;;;;5091565;28;20215;-78
2021/12/24 08:47:37;;;;;;;23.97;7.77;;;9.50;99.90;;;;;;5095498;28;20625;-77
2021/12/24 08:50:06;;;;;;;26.70;8.90;;;9.50;99.90;;;;;;5095803;28;20216;-78
2021/12/24 08:52:33;;;;;;;31.40;9.10;;;9.50;99.90;;;;;;5096366;28;20212;-78
2021/12/24 08:55:00;;;;;;;20.10;8.27;;;9.40;99.90;;;;;;5078471;28;20257;-78
2021/12/24 08:57:27;;;;;;;16.37;7.60;;;9.50;99.90;;;;;;5097314;28;20203;-79
2021/12/24 08:59:54;;;;;;;25.27;8.03;;;9.60;99.90;;;;;;5103744;28;20243;-79
2021/12/24 09:02:21;;;;;;;17.37;8.27;;;9.60;99.90;;;;;;5097783;28;20226;-78
2021/12/24 09:04:48;;;;;;;27.10;10.23;;;9.60;99.90;;;;;;5097954;28;20207;-79
2021/12/24 09:07:15;;;;;;;25.17;8.53;;;9.60;99.90;;;;;;5092875;28;20243;-78
2021/12/24 09:09:41;;;;;;;27.37;9.03;;;9.60;99.90;;;;;;5103595;28;20270;-78
2021/12/24 09:12:09;;;;;;;30.37;10.80;;;9.60;99.90;;;;;;5097349;28;20210;-78
2021/12/24 09:14:36;;;;;;;31.90;8.53;;;9.60;99.90;;;;;;5097980;28;20285;-77
2021/12/24 09:17:05;;;;;;;25.70;8.73;;;9.60;99.90;;;;;;5098431;28;20203;-78
2021/12/24 09:19:44;;;;;;;26.10;9.40;;;9.60;99.90;;;;;;5101782;28;20239;-79
2021/12/24 09:22:16;;;;;;;28.17;8.77;;;9.60;99.90;;;;;;5093307;28;20341;-79
2021/12/24 09:24:46;;;;;;;32.03;9.73;;;9.60;99.90;;;;;;5092547;28;20209;-79
2021/12/24 09:27:14;;;;;;;27.57;9.40;;;9.60;99.90;;;;;;5080007;28;20580;-78
2021/12/24 09:29:42;;;;;;;30.07;10.20;;;9.60;99.90;;;;;;5081020;28;20545;-78
2021/12/24 09:32:09;;;;;;;25.03;8.90;;;9.70;99.90;;;;;;5085572;28;20709;-78
2021/12/24 09:34:36;;;;;;;25.83;8.47;;;9.60;99.90;;;;;;5113031;28;20250;-78
2021/12/24 09:37:07;;;;;;;28.30;8.43;;;9.70;99.90;;;;;;5104125;28;20214;-79
2021/12/24 09:39:34;;;;;;;27.63;7.90;;;9.70;99.90;;;;;;5105327;28;20226;-79
2021/12/24 09:42:02;;;;;;;30.60;8.87;;;9.70;99.90;;;;;;5103154;28;20230;-78
2021/12/24 09:44:29;;;;;;;25.53;7.73;;;9.70;99.90;;;;;;5099548;28;20298;-78
2021/12/24 09:46:56;;;;;;;22.40;8.37;;;9.70;99.90;;;;;;5097426;28;20652;-78
2021/12/24 09:49:24;;;;;;;22.70;7.83;;;9.70;99.90;;;;;;5096405;28;20235;-80
2021/12/24 09:51:52;;;;;;;24.17;7.97;;;9.70;99.90;;;;;;5103613;28;20265;-78
2021/12/24 09:54:26;;;;;;;23.43;7.50;;;9.70;99.90;;;;;;5105026;28;20250;-77
2021/12/24 09:56:55;;;;;;;22.10;7.73;;;9.70;99.90;;;;;;5100975;28;20224;-78
2021/12/24 09:59:23;;;;;;;22.73;7.67;;;9.60;99.90;;;;;;5095335;28;20646;-78
2021/12/24 10:01:55;;;;;;;18.27;7.90;;;9.60;99.90;;;;;;5079602;28;20558;-78
2021/12/24 10:04:26;;;;;;;17.80;7.97;;;9.60;99.90;;;;;;5099572;28;20222;-78
2021/12/24 10:07:05;;;;;;;21.00;7.90;;;9.60;99.90;;;;;;5100150;28;20290;-77
2021/12/24 10:09:34;;;;;;;23.33;7.80;;;9.60;99.90;;;;;;5080936;28;20253;-78
2021/12/24 10:12:13;;;;;;;22.17;7.37;;;9.60;99.90;;;;;;5100982;28;20200;-78
2021/12/24 10:14:52;;;;;;;26.37;7.23;;;9.60;99.90;;;;;;5093874;28;20257;-77
2021/12/24 10:17:28;;;;;;;18.37;6.37;;;9.60;99.90;;;;;;5097173;28;20378;-79
2021/12/24 10:19:58;;;;;;;19.03;6.90;;;9.60;99.90;;;;;;5100106;28;20219;-78
2021/12/24 10:22:45;;;;;;;22.57;6.43;;;9.60;99.90;;;;;;5101780;28;20326;-79
2021/12/24 10:25:13;;;;;;;23.73;7.07;;;9.60;99.90;;;;;;5100600;28;20589;-78
2021/12/24 10:27:42;;;;;;;18.90;6.77;;;9.60;99.90;;;;;;5096246;28;20273;-78
2021/12/24 10:30:29;;;;;;;34.70;16.87;;;9.60;99.90;;;;;;5098101;28;20659;-78
2021/12/24 10:32:58;;;;;;;22.87;7.67;;;9.60;99.90;;;;;;5101335;28;20263;-78
2021/12/24 10:35:30;;;;;;;18.07;7.40;;;9.60;99.90;;;;;;5077178;28;20295;-77
2021/12/24 10:38:17;;;;;;;23.73;8.07;;;9.70;99.90;;;;;;5096429;28;20200;-78
2021/12/24 10:40:55;;;;;;;18.53;6.90;;;9.70;99.90;;;;;;5102301;28;20750;-78
2021/12/24 10:43:33;;;;;;;20.27;7.93;;;9.70;99.90;;;;;;5098683;28;20258;-77
2021/12/24 10:46:17;;;;;;;23.57;7.77;;;9.70;99.90;;;;;;5104289;28;20301;-77
2021/12/24 10:49:14;;;;;;;21.80;8.40;;;9.70;99.90;;;;;;5098837;28;20239;-76
2021/12/24 10:51:59;;;;;;;24.30;10.93;;;9.70;99.90;;;;;;5103038;28;20693;-77
2021/12/24 10:54:27;;;;;;;24.93;11.73;;;9.70;99.90;;;;;;5085970;28;20601;-79
2021/12/24 10:57:16;;;;;;;27.53;12.47;;;9.70;99.90;;;;;;5094620;28;20635;-77
2021/12/24 10:59:45;;;;;;;23.10;11.73;;;9.70;99.90;;;;;;5099901;28;20631;-77
2021/12/24 11:02:12;;;;;;;23.10;11.83;;;9.60;99.90;;;;;;5100102;28;20741;-77
2021/12/24 11:04:39;;;;;;;20.17;11.50;;;9.60;99.90;;;;;;5097995;28;20289;-77
2021/12/24 11:07:42;;;;;;;25.90;13.00;;;9.60;99.90;;;;;;5103526;28;20225;-77
2021/12/24 11:10:19;;;;;;;22.67;11.57;;;9.50;99.90;;;;;;5103813;28;20244;-77
2021/12/24 11:12:55;;;;;;;22.73;11.40;;;9.50;99.90;;;;;;5093964;28;20327;-76
2021/12/24 11:15:34;;;;;;;22.47;12.40;;;9.50;99.90;;;;;;5106092;28;20298;-77
2021/12/24 11:18:08;;;;;;;18.50;10.80;;;9.40;99.90;;;;;;5112944;28;20259;-76
2021/12/24 11:20:36;;;;;;;17.33;10.53;;;9.40;99.90;;;;;;5108798;28;20210;-76
2021/12/24 11:23:08;;;;;;;21.87;10.70;;;9.50;99.90;;;;;;5097085;28;20698;-76
2021/12/24 11:25:44;;;;;;;17.97;9.80;;;9.40;99.90;;;;;;5109158;28;20199;-76
2021/12/24 11:28:14;;;;;;;16.17;10.00;;;9.40;99.90;;;;;;5106905;28;20365;-75
2021/12/24 11:30:44;;;;;;;16.30;9.37;;;9.50;99.90;;;;;;5108076;28;20202;-75
2021/12/24 11:33:22;;;;;;;18.80;10.00;;;9.50;99.90;;;;;;5104715;28;20210;-75
2021/12/24 11:35:51;;;;;;;16.40;9.83;;;9.50;99.90;;;;;;5102184;28;20245;-76
2021/12/24 11:38:21;;;;;;;19.10;9.80;;;9.50;99.90;;;;;;5098130;28;20690;-75
2021/12/24 11:40:50;;;;;;;15.17;8.93;;;9.50;99.90;;;;;;5098665;28;20237;-76
2021/12/24 11:43:19;;;;;;;18.73;9.40;;;9.50;99.90;;;;;;5102830;28;20261;-76
2021/12/24 11:45:46;;;;;;;15.07;8.40;;;9.60;99.90;;;;;;5103121;28;20670;-76
2021/12/24 11:48:13;;;;;;;12.00;7.60;;;9.60;99.90;;;;;;5103829;28;20212;-76
2021/12/24 11:50:41;;;;;;;14.87;7.40;;;9.60;99.90;;;;;;5103795;28;20232;-76
2021/12/24 11:53:10;;;;;;;17.30;7.97;;;9.60;99.90;;;;;;5101002;28;20668;-76
2021/12/24 11:55:40;;;;;;;11.17;6.83;;;9.60;99.90;;;;;;5096917;28;20249;-74
2021/12/24 11:58:14;;;;;;;14.93;7.60;;;9.60;99.90;;;;;;5097070;28;20274;-75
2021/12/24 12:00:44;;;;;;;17.70;7.73;;;9.70;99.90;;;;;;5083717;28;20765;-76
2021/12/24 12:03:37;;;;;;;12.90;7.37;;;9.70;99.90;;;;;;5076335;28;20742;-75
2021/12/24 12:06:11;;;;;;;14.37;7.67;;;9.70;99.90;;;;;;5077814;28;20306;-75
2021/12/24 12:08:40;;;;;;;14.07;6.77;;;9.70;99.90;;;;;;5079405;28;20664;-76
2021/12/24 12:11:25;;;;;;;12.73;7.17;;;9.70;99.90;;;;;;5078137;28;20230;-76
2021/12/24 12:13:55;;;;;;;12.87;6.60;;;9.70;99.90;;;;;;5081366;28;20667;-78
2021/12/24 12:16:22;;;;;;;10.50;6.00;;;9.70;99.90;;;;;;5081653;28;20199;-77
2021/12/24 12:19:08;;;;;;;10.07;6.47;;;9.70;99.90;;;;;;5085928;28;20204;-78
2021/12/24 12:21:39;;;;;;;8.53;5.20;;;9.70;99.90;;;;;;5077770;28;20572;-78
2021/12/24 12:26:42;;;;;;;11.83;5.63;;;9.70;99.90;;;;;;5076623;28;20664;-77
2021/12/24 12:29:29;;;;;;;10.73;4.73;;;9.70;99.90;;;;;;5074484;28;20273;-78
2021/12/24 12:32:17;;;;;;;11.00;4.63;;;9.70;99.90;;;;;;5082021;28;20226;-78
2021/12/24 12:34:44;;;;;;;11.23;4.97;;;9.70;99.90;;;;;;5073607;28;20286;-77
2021/12/24 12:37:24;;;;;;;9.47;4.80;;;9.70;99.90;;;;;;5082821;28;20659;-79
2021/12/24 12:40:12;;;;;;;8.10;4.47;;;9.70;99.90;;;;;;5075414;28;20223;-77
2021/12/24 12:42:48;;;;;;;9.67;4.37;;;9.70;99.90;;;;;;5076881;28;20287;-78
2021/12/24 12:45:16;;;;;;;8.10;5.27;;;9.60;99.90;;;;;;5075140;28;20977;-78
2021/12/24 12:47:58;;;;;;;9.60;4.90;;;9.60;99.90;;;;;;5077530;28;20215;-79
2021/12/24 12:50:27;;;;;;;12.63;5.87;;;9.60;99.90;;;;;;5077751;28;20270;-77
2021/12/24 12:53:26;;;;;;;11.70;6.03;;;9.60;99.90;;;;;;5088141;28;20218;-76
2021/12/24 12:56:17;;;;;;;13.87;7.23;;;9.60;99.90;;;;;;5081404;28;20695;-77
2021/12/24 12:58:49;;;;;;;13.27;6.13;;;9.60;99.90;;;;;;5071871;28;20234;-77
2021/12/24 13:01:20;;;;;;;16.97;7.03;;;9.60;99.90;;;;;;5083315;28;20203;-77
2021/12/24 13:04:03;;;;;;;13.20;6.80;;;9.60;99.90;;;;;;5075643;28;20228;-78
2021/12/24 13:06:38;;;;;;;18.83;7.53;;;9.60;99.90;;;;;;5083061;28;20200;-78
2021/12/24 13:09:12;;;;;;;20.60;7.03;;;9.80;99.90;;;;;;5079702;28;20259;-78
2021/12/24 13:11:44;;;;;;;15.27;7.60;;;9.60;99.90;;;;;;5082910;28;20659;-76
2021/12/24 13:14:12;;;;;;;15.47;7.40;;;9.70;99.90;;;;;;5084154;28;20705;-78
2021/12/24 13:16:52;;;;;;;21.90;7.40;;;9.70;99.90;;;;;;5079893;28;20229;-78
2021/12/24 13:19:58;;;;;;;14.37;7.30;;;9.70;99.90;;;;;;5083306;28;20219;-80
2021/12/24 13:22:28;;;;;;;15.00;7.57;;;9.70;99.90;;;;;;5086607;28;20315;-78
2021/12/24 13:24:55;;;;;;;16.03;7.20;;;9.80;99.90;;;;;;5078864;28;20275;-77
2021/12/24 13:27:25;;;;;;;13.80;7.10;;;9.80;99.90;;;;;;5079784;28;20232;-77
2021/12/24 13:30:09;;;;;;;20.27;7.30;;;9.80;99.90;;;;;;5082681;28;20575;-77
2021/12/24 13:32:41;;;;;;;20.23;7.40;;;9.70;99.90;;;;;;5084295;28;20221;-77
2021/12/24 13:35:10;;;;;;;14.97;7.70;;;9.70;99.90;;;;;;5087885;28;20220;-77
2021/12/24 13:37:36;;;;;;;19.60;7.67;;;9.70;99.90;;;;;;5083302;28;20238;-76
2021/12/24 13:40:08;;;;;;;19.73;7.57;;;9.70;99.90;;;;;;5082132;28;20199;-77
2021/12/24 13:42:53;;;;;;;17.37;6.53;;;9.80;99.90;;;;;;5081938;28;20247;-76
2021/12/24 13:45:21;;;;;;;13.00;6.93;;;9.70;99.90;;;;;;5076526;28;20266;-78
2021/12/24 13:48:04;;;;;;;17.60;7.87;;;9.70;99.90;;;;;;5076797;28;20204;-76
2021/12/24 13:56:43;;;;;;;9.40;4.73;;;9.70;99.90;;;;;;5080222;28;20204;-77
2021/12/24 13:59:13;;;;;;;13.40;5.63;;;9.50;99.90;;;;;;5084195;28;20258;-77
2021/12/24 14:01:42;;;;;;;11.67;5.53;;;9.50;99.90;;;;;;5080635;28;20238;-78
2021/12/24 14:04:14;;;;;;;7.53;4.87;;;9.50;99.90;;;;;;5079061;28;20289;-78
2021/12/24 14:06:44;;;;;;;7.83;4.10;;;9.50;99.90;;;;;;5078880;28;20225;-77
2021/12/24 14:09:30;;;;;;;5.97;2.80;;;9.40;99.90;;;;;;5080225;28;20591;-77
2021/12/24 14:11:59;;;;;;;3.67;2.80;;;9.30;99.90;;;;;;5080417;28;20290;-75
2021/12/24 14:14:49;;;;;;;4.93;3.23;;;9.30;99.90;;;;;;5081291;28;20287;-72
2021/12/24 14:17:36;;;;;;;5.93;2.77;;;9.30;99.90;;;;;;5080445;28;20463;-76
2021/12/24 14:20:11;;;;;;;5.83;2.90;;;9.30;99.90;;;;;;5081378;28;20218;-75
2021/12/24 14:22:40;;;;;;;4.93;2.87;;;9.20;99.90;;;;;;5078807;28;20239;-77
2021/12/24 14:25:12;;;;;;;4.83;2.33;;;9.20;99.90;;;;;;5078840;28;20203;-75
2021/12/24 14:27:44;;;;;;;6.10;2.60;;;9.20;99.90;;;;;;5078461;28;20230;-77
2021/12/24 14:30:15;;;;;;;7.37;2.67;;;9.20;99.90;;;;;;5084050;28;20737;-74
2021/12/24 14:32:45;;;;;;;3.00;2.27;;;9.10;99.90;;;;;;5081914;28;20273;-77
2021/12/24 14:35:27;;;;;;;5.40;2.27;;;9.00;99.90;;;;;;5078890;28;20252;-76
2021/12/24 14:37:57;;;;;;;3.33;1.90;;;9.00;99.90;;;;;;5084769;28;20196;-76
2021/12/24 14:40:25;;;;;;;2.80;2.20;;;8.80;99.90;;;;;;5079049;28;20242;-76
2021/12/24 14:42:53;;;;;;;5.20;2.17;;;8.90;99.90;;;;;;5083812;28;20238;-78
2021/12/24 14:45:27;;;;;;;4.60;2.63;;;8.90;99.90;;;;;;5080333;28;20291;-76